Time;durP1;ratioP1;P1;durP2;ratioP2;P2;SDS_P1;SDS_P2;PMS_P1;PMS_P2;Temp;Humidity;BMP_temperature;BMP_pressure;BME280_temperature;BME280_humidity;BME280_pressure;Samples;Min_cycle;Max_cycle;Signal;HPM_P1;HPM_P2
2023/03/25 00:02:22;;;;;;;7.22;2.60;;;10.60;99.90;;;;;;4985577;28;20054;-74
2023/03/25 00:04:51;;;;;;;7.72;2.78;;;10.40;99.90;;;;;;4950719;28;20042;-75
2023/03/25 00:07:18;;;;;;;4.78;1.95;;;10.30;99.90;;;;;;4956475;28;20053;-74
2023/03/25 00:09:44;;;;;;;6.82;2.33;;;10.30;99.90;;;;;;4973232;28;20047;-74
2023/03/25 00:12:09;;;;;;;5.95;2.40;;;10.10;99.90;;;;;;4962556;28;20057;-74
2023/03/25 00:14:35;;;;;;;8.70;2.13;;;10.10;99.90;;;;;;4976134;28;20080;-74
2023/03/25 00:17:01;;;;;;;3.78;1.73;;;10.00;99.90;;;;;;4977070;28;20122;-74
2023/03/25 00:19:27;;;;;;;4.75;1.42;;;10.00;99.90;;;;;;4963179;28;20122;-74
2023/03/25 00:21:59;;;;;;;5.28;1.70;;;10.00;99.90;;;;;;4969769;28;20138;-74
2023/03/25 00:24:24;;;;;;;3.90;1.30;;;10.10;99.90;;;;;;4983123;28;20125;-75
2023/03/25 00:26:50;;;;;;;4.18;1.35;;;10.00;99.90;;;;;;4962734;28;20130;-75
2023/03/25 00:29:16;;;;;;;5.50;1.83;;;10.00;99.90;;;;;;4976107;28;20046;-75
2023/03/25 00:31:42;;;;;;;3.60;1.15;;;10.00;99.90;;;;;;4966552;28;20042;-75
2023/03/25 00:34:08;;;;;;;5.63;1.13;;;10.00;99.90;;;;;;4989884;28;20054;-75
2023/03/25 00:36:37;;;;;;;3.97;1.20;;;10.00;99.90;;;;;;4950241;28;20526;-75
2023/03/25 00:39:07;;;;;;;4.10;1.13;;;10.00;99.90;;;;;;4968921;28;20064;-75
2023/03/25 00:41:34;;;;;;;3.17;1.40;;;10.00;99.90;;;;;;4975922;28;20644;-73
2023/03/25 00:44:00;;;;;;;2.60;1.25;;;10.10;99.90;;;;;;4962863;28;20046;-75
2023/03/25 00:46:27;;;;;;;8.00;1.83;;;10.20;99.90;;;;;;4944985;28;20047;-75
2023/03/25 00:48:54;;;;;;;4.95;1.42;;;10.10;99.90;;;;;;4947661;28;20050;-75
2023/03/25 00:51:20;;;;;;;6.63;2.15;;;10.10;99.90;;;;;;4971169;28;20128;-75
2023/03/25 00:53:53;;;;;;;5.40;1.67;;;10.10;99.90;;;;;;4946248;28;20371;-74
2023/03/25 00:56:22;;;;;;;4.07;1.60;;;10.10;99.90;;;;;;4968942;28;20058;-75
2023/03/25 00:58:48;;;;;;;5.38;1.70;;;10.10;99.90;;;;;;4943155;28;20089;-74
2023/03/25 01:01:16;;;;;;;7.88;1.90;;;10.00;99.90;;;;;;4971498;28;20074;-74
2023/03/25 01:03:43;;;;;;;7.60;2.10;;;10.00;99.90;;;;;;4974807;28;20387;-75
2023/03/25 01:06:20;;;;;;;7.03;1.67;;;10.00;99.90;;;;;;4981646;28;20054;-74
2023/03/25 01:08:46;;;;;;;7.50;1.70;;;10.00;99.90;;;;;;4983333;28;20455;-74
2023/03/25 01:11:20;;;;;;;9.43;1.50;;;10.00;99.90;;;;;;4964817;28;20104;-75
2023/03/25 01:13:45;;;;;;;5.53;1.70;;;10.00;99.90;;;;;;4943116;28;20042;-75
2023/03/25 01:16:11;;;;;;;4.70;1.67;;;9.90;99.90;;;;;;4949072;28;20375;-74
2023/03/25 01:18:37;;;;;;;5.70;1.45;;;9.90;99.90;;;;;;4956090;28;20105;-75
2023/03/25 01:21:06;;;;;;;3.67;1.17;;;9.90;99.90;;;;;;4954933;28;20039;-76
2023/03/25 01:23:33;;;;;;;2.65;1.15;;;9.80;99.90;;;;;;4959898;28;20081;-75
2023/03/25 01:25:58;;;;;;;3.65;1.30;;;9.90;99.90;;;;;;4957015;28;20052;-75
2023/03/25 01:28:24;;;;;;;6.88;1.40;;;9.70;99.90;;;;;;4976684;28;20046;-75
2023/03/25 01:30:50;;;;;;;3.25;1.10;;;9.70;99.90;;;;;;4978347;28;20120;-76
2023/03/25 01:33:16;;;;;;;4.30;1.20;;;9.70;99.90;;;;;;4988954;28;20057;-75
2023/03/25 01:35:42;;;;;;;3.63;1.10;;;9.70;99.90;;;;;;4981681;28;20070;-76
2023/03/25 01:38:07;;;;;;;4.78;1.33;;;9.60;99.90;;;;;;4984629;28;20472;-75
2023/03/25 01:40:33;;;;;;;2.92;1.02;;;9.60;99.90;;;;;;4976359;28;20042;-75
2023/03/25 01:43:01;;;;;;;3.35;1.10;;;9.60;99.90;;;;;;4971320;28;20046;-75
2023/03/25 01:45:31;;;;;;;2.90;1.17;;;9.60;99.90;;;;;;4949162;28;20046;-75
2023/03/25 01:48:05;;;;;;;5.65;1.40;;;9.60;99.90;;;;;;4982260;28;20050;-74
2023/03/25 01:50:32;;;;;;;7.72;1.77;;;9.60;99.90;;;;;;4972306;28;20042;-74
2023/03/25 01:52:58;;;;;;;3.20;1.08;;;9.60;99.90;;;;;;4974667;28;20466;-75
2023/03/25 01:55:26;;;;;;;5.65;1.40;;;9.60;99.90;;;;;;4992557;28;20077;-75
2023/03/25 01:57:53;;;;;;;1.70;0.85;;;9.50;99.90;;;;;;4949395;28;20443;-76
2023/03/25 02:00:20;;;;;;;4.30;0.90;;;9.50;99.90;;;;;;4962191;28;20062;-75
2023/03/25 02:02:46;;;;;;;2.80;1.10;;;9.60;99.90;;;;;;4986965;28;20046;-75
2023/03/25 02:05:24;;;;;;;6.32;1.23;;;9.60;99.90;;;;;;4942741;28;20084;-75
2023/03/25 02:07:49;;;;;;;3.60;1.10;;;9.60;99.90;;;;;;4981480;28;20039;-75
2023/03/25 02:10:15;;;;;;;2.30;1.08;;;9.60;99.90;;;;;;4953103;28;20113;-75
2023/03/25 02:12:44;;;;;;;2.20;0.95;;;9.60;99.90;;;;;;4943486;28;20043;-75
2023/03/25 02:15:10;;;;;;;2.88;0.90;;;9.60;99.90;;;;;;4948943;28;20069;-75
2023/03/25 02:17:56;;;;;;;2.50;1.10;;;9.60;99.90;;;;;;4975708;28;20754;-75
2023/03/25 02:20:40;;;;;;;2.75;1.25;;;9.60;99.90;;;;;;4975073;28;20054;-75
2023/03/25 02:23:15;;;;;;;3.78;1.30;;;9.70;99.90;;;;;;4985891;28;20042;-76
2023/03/25 02:25:59;;;;;;;5.22;1.27;;;9.70;99.90;;;;;;4985195;28;20046;-74
2023/03/25 02:28:47;;;;;;;3.35;1.27;;;9.70;99.90;;;;;;4975046;28;20575;-74
2023/03/25 02:31:27;;;;;;;3.78;1.45;;;9.70;99.90;;;;;;4988183;28;20527;-75
2023/03/25 02:34:02;;;;;;;6.05;1.48;;;9.70;99.90;;;;;;4981211;28;20108;-74
2023/03/25 02:36:48;;;;;;;5.60;1.48;;;9.70;99.90;;;;;;4976537;28;20065;-74
2023/03/25 02:39:38;;;;;;;5.65;1.60;;;9.70;99.90;;;;;;4990741;28;20539;-75
2023/03/25 02:42:24;;;;;;;4.72;1.40;;;9.70;99.90;;;;;;4977323;28;20132;-74
2023/03/25 02:45:05;;;;;;;4.43;1.40;;;9.70;99.90;;;;;;4959783;28;20039;-74
2023/03/25 02:47:35;;;;;;;5.10;1.40;;;9.70;99.90;;;;;;4970740;28;20049;-76
2023/03/25 02:50:10;;;;;;;4.78;1.75;;;9.70;99.90;;;;;;4957962;28;20424;-75
2023/03/25 02:52:40;;;;;;;3.40;1.08;;;9.70;99.90;;;;;;4964820;28;20052;-75
2023/03/25 02:55:09;;;;;;;4.65;1.13;;;9.70;99.90;;;;;;4944551;28;20046;-76
2023/03/25 02:57:38;;;;;;;3.03;1.15;;;9.60;99.90;;;;;;4946455;28;20042;-74
2023/03/25 03:00:09;;;;;;;2.25;0.73;;;9.60;99.90;;;;;;4950523;28;20486;-75
2023/03/25 03:02:35;;;;;;;3.75;1.27;;;9.50;99.90;;;;;;4980640;28;20057;-75
2023/03/25 03:05:01;;;;;;;1.65;0.73;;;9.60;99.90;;;;;;4993138;28;20050;-75
2023/03/25 03:07:29;;;;;;;3.08;0.75;;;9.50;99.90;;;;;;4966450;28;20050;-74
2023/03/25 03:10:19;;;;;;;3.15;0.95;;;9.50;99.90;;;;;;4969826;28;20063;-75
2023/03/25 03:13:02;;;;;;;2.63;0.73;;;9.50;99.90;;;;;;4980091;28;20541;-74
2023/03/25 03:15:31;;;;;;;3.55;0.98;;;9.50;99.90;;;;;;4976304;28;20047;-74
2023/03/25 03:18:16;;;;;;;5.97;1.13;;;9.50;99.90;;;;;;4976559;28;20042;-75
2023/03/25 03:20:57;;;;;;;3.03;1.10;;;9.50;99.90;;;;;;4980603;28;20042;-74
2023/03/25 03:23:32;;;;;;;4.15;0.98;;;9.50;99.90;;;;;;4984468;28;20042;-76
2023/03/25 03:26:14;;;;;;;1.83;0.63;;;9.40;99.90;;;;;;4947152;28;20391;-74
2023/03/25 03:28:53;;;;;;;2.15;0.80;;;9.40;99.90;;;;;;4970613;28;20057;-76
2023/03/25 03:31:32;;;;;;;2.88;1.25;;;9.40;99.90;;;;;;4966933;28;20716;-74
2023/03/25 03:34:09;;;;;;;1.80;0.77;;;9.40;99.90;;;;;;4991383;28;20720;-75
2023/03/25 03:36:39;;;;;;;2.55;1.00;;;9.50;99.90;;;;;;4954717;28;20051;-76
2023/03/25 03:39:18;;;;;;;2.72;1.00;;;9.50;99.90;;;;;;4953366;28;20138;-74
2023/03/25 03:41:45;;;;;;;2.33;0.98;;;9.40;99.90;;;;;;4962691;28;20114;-74
2023/03/25 03:44:15;;;;;;;2.10;0.80;;;9.40;99.90;;;;;;4983805;28;20116;-75
2023/03/25 03:47:05;;;;;;;4.25;1.20;;;9.40;99.90;;;;;;4930395;28;20172;-74
2023/03/25 03:49:37;;;;;;;4.45;1.40;;;9.40;99.90;;;;;;4967777;28;20047;-74
2023/03/25 03:52:13;;;;;;;2.40;1.00;;;9.40;99.90;;;;;;4970313;28;20052;-75
2023/03/25 03:54:48;;;;;;;3.92;1.42;;;9.40;99.90;;;;;;4944441;28;20051;-75
2023/03/25 03:57:29;;;;;;;4.53;1.30;;;9.40;99.90;;;;;;4970181;28;20518;-76
2023/03/25 03:59:58;;;;;;;5.30;1.35;;;9.30;99.90;;;;;;4965510;28;20531;-74
2023/03/25 04:02:31;;;;;;;2.45;1.17;;;9.30;99.90;;;;;;4980764;28;20052;-75
2023/03/25 04:04:59;;;;;;;5.07;1.20;;;9.30;99.90;;;;;;4962362;28;20138;-75
2023/03/25 04:07:59;;;;;;;5.25;1.33;;;9.20;99.90;;;;;;4982998;28;20493;-74
2023/03/25 04:10:41;;;;;;;5.15;1.50;;;9.30;99.90;;;;;;4962803;28;20157;-74
2023/03/25 04:13:12;;;;;;;3.45;1.30;;;9.20;99.90;;;;;;4968713;28;20108;-74
2023/03/25 04:15:39;;;;;;;4.88;1.08;;;9.20;99.90;;;;;;4947575;28;20483;-74
2023/03/25 04:18:05;;;;;;;4.72;1.23;;;9.10;99.90;;;;;;4971979;28;20383;-74
2023/03/25 04:20:33;;;;;;;4.28;1.10;;;9.10;99.90;;;;;;4954194;28;20058;-74
2023/03/25 04:23:03;;;;;;;4.53;0.98;;;9.10;99.90;;;;;;4983649;28;20054;-74
2023/03/25 04:25:31;;;;;;;4.35;1.33;;;9.00;99.90;;;;;;4984095;28;20087;-74
2023/03/25 04:27:57;;;;;;;5.03;1.30;;;9.00;99.90;;;;;;4963065;28;20043;-74
2023/03/25 04:30:24;;;;;;;4.10;1.00;;;9.00;99.90;;;;;;4982437;28;20126;-74
2023/03/25 04:32:50;;;;;;;3.95;1.05;;;9.00;99.90;;;;;;4979996;28;20082;-75
2023/03/25 04:35:17;;;;;;;3.70;1.02;;;8.90;99.90;;;;;;4937068;28;20447;-75
2023/03/25 04:37:47;;;;;;;3.63;1.00;;;8.90;99.90;;;;;;4964937;28;20046;-74
2023/03/25 04:40:17;;;;;;;7.15;1.27;;;8.90;99.90;;;;;;4967318;28;20399;-74
2023/03/25 04:42:46;;;;;;;4.82;1.10;;;8.90;99.90;;;;;;4962387;28;20542;-75
2023/03/25 04:45:15;;;;;;;4.07;1.25;;;8.80;99.90;;;;;;4962957;28;20744;-75
2023/03/25 04:47:43;;;;;;;3.25;1.30;;;8.90;99.90;;;;;;4958121;28;20069;-76
2023/03/25 04:50:16;;;;;;;5.90;1.55;;;8.90;99.90;;;;;;4954572;28;20043;-75
2023/03/25 04:52:42;;;;;;;5.35;1.30;;;8.80;99.90;;;;;;4994747;28;20129;-74
2023/03/25 04:55:08;;;;;;;4.30;1.15;;;8.80;99.90;;;;;;4958815;28;20146;-73
2023/03/25 04:57:34;;;;;;;4.25;1.10;;;8.80;99.90;;;;;;4982632;28;20050;-74
2023/03/25 05:00:00;;;;;;;7.65;2.20;;;8.80;99.90;;;;;;4972346;28;20085;-75
2023/03/25 05:02:26;;;;;;;5.15;1.27;;;8.80;99.90;;;;;;4948231;28;20807;-75
2023/03/25 05:04:52;;;;;;;4.95;1.23;;;8.90;99.90;;;;;;4957310;28;20047;-75
2023/03/25 05:07:18;;;;;;;8.55;1.63;;;8.80;99.90;;;;;;4992347;28;20062;-76
2023/03/25 05:09:44;;;;;;;4.00;1.33;;;8.80;99.90;;;;;;4978431;28;20092;-75
2023/03/25 05:12:10;;;;;;;7.28;1.88;;;8.90;99.90;;;;;;4972047;28;20535;-75
2023/03/25 05:14:36;;;;;;;5.13;1.20;;;8.90;99.90;;;;;;4976601;28;20050;-74
2023/03/25 05:17:02;;;;;;;3.50;1.27;;;9.00;99.90;;;;;;4995332;28;20112;-75
2023/03/25 05:19:28;;;;;;;6.07;1.63;;;8.90;99.90;;;;;;4946547;28;20046;-74
2023/03/25 05:21:55;;;;;;;3.47;1.90;;;8.80;99.90;;;;;;4950414;28;20042;-76
2023/03/25 05:24:20;;;;;;;6.45;2.15;;;8.60;99.90;;;;;;4983746;28;20129;-74
2023/03/25 05:26:46;;;;;;;8.88;2.58;;;8.50;99.90;;;;;;4987228;28;20042;-74
2023/03/25 05:29:13;;;;;;;6.00;2.00;;;8.30;99.90;;;;;;4972425;28;20129;-74
2023/03/25 05:31:41;;;;;;;4.95;1.92;;;8.20;99.90;;;;;;4976590;28;20104;-74
2023/03/25 05:34:07;;;;;;;4.35;2.13;;;8.10;99.90;;;;;;4985782;28;20145;-73
2023/03/25 05:36:33;;;;;;;8.00;1.85;;;8.10;99.90;;;;;;4983701;28;20051;-73
2023/03/25 05:38:59;;;;;;;7.10;1.92;;;8.10;99.90;;;;;;4960891;28;20081;-73
2023/03/25 05:41:31;;;;;;;4.95;1.58;;;8.00;99.90;;;;;;4970803;28;20073;-73
2023/03/25 05:44:00;;;;;;;6.15;1.55;;;8.00;99.90;;;;;;4966125;28;20511;-74
2023/03/25 05:46:30;;;;;;;5.07;2.00;;;7.90;99.90;;;;;;4966736;28;20140;-73
2023/03/25 05:48:56;;;;;;;4.45;1.55;;;7.90;99.90;;;;;;4955594;28;20480;-73
2023/03/25 05:51:22;;;;;;;4.13;1.38;;;8.00;99.90;;;;;;4972285;28;20050;-73
2023/03/25 05:53:52;;;;;;;7.28;1.70;;;8.00;99.90;;;;;;4971070;28;20050;-74
2023/03/25 05:56:18;;;;;;;7.18;1.48;;;8.00;99.90;;;;;;4973759;28;20225;-73
2023/03/25 05:58:49;;;;;;;2.65;1.45;;;8.00;99.90;;;;;;4944161;28;20380;-73
2023/03/25 06:01:17;;;;;;;4.00;1.42;;;7.90;99.90;;;;;;4962972;28;20775;-74
2023/03/25 06:03:43;;;;;;;4.35;1.35;;;8.00;99.90;;;;;;4938320;28;20049;-73
2023/03/25 06:06:18;;;;;;;4.38;1.60;;;8.00;99.90;;;;;;4963238;28;20457;-73
2023/03/25 06:08:45;;;;;;;5.30;1.90;;;8.00;99.90;;;;;;4961805;28;20058;-73
2023/03/25 06:11:14;;;;;;;2.88;1.30;;;8.00;99.90;;;;;;4938059;28;20061;-73
2023/03/25 06:13:40;;;;;;;5.82;1.70;;;8.10;99.90;;;;;;4969085;28;20112;-73
2023/03/25 06:16:07;;;;;;;6.95;2.03;;;8.00;99.90;;;;;;4980548;28;20459;-74
2023/03/25 06:18:36;;;;;;;6.28;2.10;;;8.20;99.90;;;;;;4954832;28;20050;-74
2023/03/25 06:21:02;;;;;;;6.35;2.13;;;8.10;99.90;;;;;;4986769;28;20042;-73
2023/03/25 06:23:28;;;;;;;5.57;2.22;;;8.10;99.90;;;;;;4953344;28;20070;-74
2023/03/25 06:25:54;;;;;;;4.15;1.70;;;8.10;99.90;;;;;;4954568;28;20078;-74
2023/03/25 06:28:22;;;;;;;3.97;1.75;;;8.20;99.90;;;;;;4958354;28;21034;-74
2023/03/25 06:30:48;;;;;;;6.38;1.85;;;8.30;99.90;;;;;;4972107;28;20038;-74
2023/03/25 06:33:14;;;;;;;6.22;2.15;;;8.20;99.90;;;;;;4949454;28;20050;-73
2023/03/25 06:35:41;;;;;;;5.20;1.90;;;8.20;99.90;;;;;;4943809;28;20057;-73
2023/03/25 06:38:08;;;;;;;3.72;1.48;;;8.30;99.90;;;;;;4970150;28;20062;-74
2023/03/25 06:40:36;;;;;;;5.25;1.73;;;8.40;99.90;;;;;;4944218;28;20051;-74
2023/03/25 06:43:04;;;;;;;6.18;1.63;;;8.40;99.90;;;;;;4964420;28;20082;-74
2023/03/25 06:45:30;;;;;;;5.30;1.75;;;8.50;99.90;;;;;;4973541;28;20531;-74
2023/03/25 06:47:56;;;;;;;3.53;1.50;;;8.50;99.90;;;;;;4941695;28;20050;-75
2023/03/25 06:50:22;;;;;;;3.08;1.52;;;8.60;99.90;;;;;;4965965;28;20101;-74
2023/03/25 06:52:47;;;;;;;4.53;1.42;;;8.60;99.90;;;;;;4967453;28;20137;-74
2023/03/25 06:55:14;;;;;;;4.93;1.60;;;8.70;99.90;;;;;;4956675;28;20046;-75
2023/03/25 06:57:40;;;;;;;4.22;1.30;;;8.80;99.90;;;;;;4965933;28;20038;-74
2023/03/25 07:00:07;;;;;;;8.82;1.80;;;8.80;99.90;;;;;;4985781;28;20085;-72
2023/03/25 07:02:33;;;;;;;2.97;1.23;;;8.90;99.90;;;;;;4959125;28;20042;-72
2023/03/25 07:04:59;;;;;;;4.28;1.48;;;8.90;99.90;;;;;;4958396;28;20042;-72
2023/03/25 07:07:25;;;;;;;5.47;1.60;;;9.00;99.90;;;;;;4963193;28;20104;-74
2023/03/25 07:09:53;;;;;;;4.82;1.80;;;8.90;99.90;;;;;;4945983;28;20050;-73
2023/03/25 07:12:20;;;;;;;3.13;1.52;;;9.00;99.90;;;;;;4978788;28;20078;-72
2023/03/25 07:14:53;;;;;;;6.07;1.83;;;9.00;99.90;;;;;;4958802;28;21968;-75
2023/03/25 07:17:18;;;;;;;7.07;2.00;;;9.10;99.90;;;;;;4987112;28;20050;-75
2023/03/25 07:19:44;;;;;;;4.57;1.67;;;9.10;99.90;;;;;;4970274;28;20060;-74
2023/03/25 07:22:10;;;;;;;5.07;1.27;;;9.10;99.90;;;;;;4952293;28;20102;-75
2023/03/25 07:24:36;;;;;;;4.25;1.73;;;9.10;99.90;;;;;;4983006;28;20049;-75
2023/03/25 07:27:01;;;;;;;2.63;1.10;;;9.20;99.90;;;;;;4973359;28;20103;-74
2023/03/25 07:29:27;;;;;;;6.15;1.30;;;9.20;99.90;;;;;;4984397;28;20046;-74
2023/03/25 07:31:53;;;;;;;4.75;1.30;;;9.20;99.90;;;;;;4984313;28;20062;-74
2023/03/25 07:34:18;;;;;;;6.35;1.75;;;9.20;99.90;;;;;;4977886;28;20135;-74
2023/03/25 07:36:44;;;;;;;3.63;1.23;;;9.20;99.90;;;;;;4960244;28;20533;-76
2023/03/25 07:39:10;;;;;;;2.53;1.40;;;9.20;99.90;;;;;;4949329;28;20058;-73
2023/03/25 07:41:36;;;;;;;4.63;1.55;;;9.20;99.90;;;;;;4983020;28;20058;-74
2023/03/25 07:44:01;;;;;;;4.72;1.50;;;9.20;99.90;;;;;;4962501;28;20546;-74
2023/03/25 07:46:27;;;;;;;4.78;1.80;;;9.20;99.90;;;;;;4964344;28;20054;-74
2023/03/25 07:48:53;;;;;;;4.10;1.23;;;9.20;99.90;;;;;;4964663;28;20061;-75
2023/03/25 07:51:19;;;;;;;2.97;1.08;;;9.20;99.90;;;;;;4939178;28;20054;-74
2023/03/25 07:53:45;;;;;;;4.95;1.50;;;9.20;99.90;;;;;;4945945;28;20627;-76
2023/03/25 07:56:11;;;;;;;2.50;1.00;;;9.20;99.90;;;;;;4969614;28;20601;-75
2023/03/25 07:58:37;;;;;;;2.75;1.30;;;9.10;99.90;;;;;;4963718;28;20171;-74
2023/03/25 08:01:03;;;;;;;4.88;1.20;;;9.10;99.90;;;;;;4968887;28;20728;-74
2023/03/25 08:03:29;;;;;;;4.55;1.25;;;9.20;99.90;;;;;;4968245;28;20047;-74
2023/03/25 08:05:55;;;;;;;3.42;1.15;;;9.20;99.90;;;;;;4949177;28;20129;-75
2023/03/25 08:08:20;;;;;;;2.95;1.38;;;9.20;99.90;;;;;;4965202;28;20156;-74
2023/03/25 08:10:47;;;;;;;5.40;1.70;;;9.30;99.90;;;;;;4964464;28;20511;-76
2023/03/25 08:13:12;;;;;;;4.25;1.35;;;9.30;99.90;;;;;;4946803;28;20046;-75
2023/03/25 08:15:39;;;;;;;3.88;1.38;;;9.30;99.90;;;;;;4980803;28;20058;-74
2023/03/25 08:18:06;;;;;;;7.07;2.08;;;9.40;99.90;;;;;;4990859;28;20185;-75
2023/03/25 08:20:35;;;;;;;6.47;2.05;;;9.30;99.90;;;;;;4978983;28;20050;-76
2023/03/25 08:23:01;;;;;;;3.65;1.35;;;9.30;99.90;;;;;;4983435;28;20047;-75
2023/03/25 08:25:28;;;;;;;5.85;1.85;;;9.40;99.90;;;;;;4986553;28;20142;-75
2023/03/25 08:27:54;;;;;;;5.22;1.40;;;9.50;99.90;;;;;;4979616;28;20050;-75
2023/03/25 08:30:21;;;;;;;5.85;1.80;;;9.50;99.90;;;;;;4972224;28;20046;-76
2023/03/25 08:32:52;;;;;;;8.35;1.92;;;9.50;99.90;;;;;;4967968;28;20125;-75
2023/03/25 08:35:20;;;;;;;4.93;1.55;;;9.60;99.90;;;;;;4968550;28;20608;-76
2023/03/25 08:37:47;;;;;;;3.97;1.50;;;9.60;99.90;;;;;;4960918;28;20054;-75
2023/03/25 08:40:17;;;;;;;5.85;1.33;;;9.60;99.90;;;;;;4967181;28;20062;-75
2023/03/25 08:42:43;;;;;;;7.20;1.90;;;9.80;99.90;;;;;;4973741;28;20046;-75
2023/03/25 08:45:09;;;;;;;6.40;1.70;;;9.80;99.90;;;;;;4960825;28;20109;-76
2023/03/25 08:47:35;;;;;;;2.60;1.38;;;9.80;99.90;;;;;;4954986;28;20047;-74
2023/03/25 08:50:01;;;;;;;2.30;1.30;;;9.90;99.90;;;;;;4961170;28;20475;-75
2023/03/25 08:52:26;;;;;;;3.65;1.50;;;9.90;99.90;;;;;;4967470;28;20050;-74
2023/03/25 08:54:52;;;;;;;5.70;1.30;;;9.90;99.90;;;;;;4975031;28;20066;-75
2023/03/25 08:57:18;;;;;;;5.00;1.70;;;10.00;99.90;;;;;;4979334;28;20161;-75
2023/03/25 08:59:44;;;;;;;3.80;1.35;;;10.00;99.90;;;;;;4972399;28;20051;-74
2023/03/25 09:02:11;;;;;;;3.70;1.30;;;10.10;99.90;;;;;;4974785;28;20542;-75
2023/03/25 09:04:38;;;;;;;3.60;1.30;;;10.10;99.90;;;;;;4950769;28;20369;-76
2023/03/25 09:07:06;;;;;;;3.63;1.17;;;10.00;99.90;;;;;;4981600;28;20042;-75
2023/03/25 09:09:32;;;;;;;3.88;1.38;;;10.00;99.90;;;;;;4952676;28;20054;-75
2023/03/25 09:11:58;;;;;;;3.75;1.48;;;10.00;99.90;;;;;;4958266;28;20047;-75
2023/03/25 09:14:24;;;;;;;3.85;1.25;;;10.00;99.90;;;;;;4948028;28;20057;-74
2023/03/25 09:16:49;;;;;;;3.50;1.35;;;10.00;99.90;;;;;;4967742;28;20066;-75
2023/03/25 09:19:15;;;;;;;4.30;1.55;;;10.30;99.90;;;;;;4966032;28;20059;-74
2023/03/25 09:21:41;;;;;;;3.42;1.10;;;10.20;99.90;;;;;;4983012;28;20547;-74
2023/03/25 09:24:08;;;;;;;2.47;1.20;;;10.30;99.90;;;;;;4945094;28;20543;-75
2023/03/25 09:26:35;;;;;;;4.03;1.45;;;10.30;99.90;;;;;;4962049;28;20043;-75
2023/03/25 09:29:01;;;;;;;3.17;1.08;;;10.30;99.90;;;;;;4956001;28;20054;-74
2023/03/25 09:31:27;;;;;;;5.35;1.20;;;10.30;99.90;;;;;;4969326;28;20141;-74
2023/03/25 09:33:52;;;;;;;6.88;1.90;;;10.30;99.90;;;;;;4980832;28;20778;-75
2023/03/25 09:36:18;;;;;;;4.28;1.20;;;10.30;99.90;;;;;;4967793;28;20607;-75
2023/03/25 09:38:44;;;;;;;3.88;1.40;;;10.20;99.90;;;;;;4979525;28;20050;-74
2023/03/25 09:41:25;;;;;;;5.90;1.10;;;10.20;99.90;;;;;;4971119;28;20043;-74
2023/03/25 09:44:00;;;;;;;3.78;1.55;;;10.10;99.90;;;;;;4976141;28;20128;-74
2023/03/25 09:46:25;;;;;;;5.78;1.83;;;10.10;99.90;;;;;;4971758;28;20056;-74
2023/03/25 09:48:51;;;;;;;3.85;1.20;;;10.00;99.90;;;;;;4967604;28;20047;-74
2023/03/25 09:51:28;;;;;;;4.63;1.50;;;9.90;99.90;;;;;;4970089;28;20621;-73
2023/03/25 09:53:54;;;;;;;6.55;2.40;;;9.80;99.90;;;;;;4969030;28;20173;-74
2023/03/25 09:56:22;;;;;;;5.75;2.42;;;9.90;99.90;;;;;;4982443;28;20458;-74
2023/03/25 09:59:04;;;;;;;7.82;3.60;;;10.00;99.90;;;;;;4977657;28;20204;-74
2023/03/25 10:01:55;;;;;;;9.18;3.17;;;9.90;99.90;;;;;;4952628;28;20047;-74
2023/03/25 10:04:46;;;;;;;5.35;2.40;;;10.00;99.90;;;;;;4983309;28;20062;-74
2023/03/25 10:07:27;;;;;;;7.53;3.42;;;9.80;99.90;;;;;;4990780;28;20056;-74
2023/03/25 10:10:07;;;;;;;3.83;1.10;;;10.10;99.90;;;;;;4985420;28;20779;-75
2023/03/25 10:12:36;;;;;;;4.10;1.10;;;10.00;99.90;;;;;;4992111;28;20050;-75
2023/03/25 10:15:05;;;;;;;;;;;10.10;99.90;;;;;;4982806;28;20137;-76
2023/03/25 10:17:44;;;;;;;2.53;1.30;;;10.20;99.90;;;;;;4949737;28;19910;-76
2023/03/25 10:20:32;;;;;;;6.45;1.60;;;10.50;99.90;;;;;;4994194;28;20058;-76
2023/03/25 10:23:03;;;;;;;5.78;1.58;;;10.80;99.90;;;;;;4982497;28;20368;-75
2023/03/25 10:25:31;;;;;;;3.85;1.10;;;10.90;99.90;;;;;;4965728;28;20437;-75
2023/03/25 10:27:57;;;;;;;;;;;11.10;99.90;;;;;;4950500;28;20122;-75
2023/03/25 10:30:25;;;;;;;5.07;1.33;;;11.30;99.90;;;;;;4975790;28;20353;-75
2023/03/25 10:32:55;;;;;;;3.33;0.93;;;10.80;99.90;;;;;;4976009;28;20356;-75
2023/03/25 10:35:29;;;;;;;3.88;0.90;;;10.70;99.90;;;;;;4944880;28;20062;-76
2023/03/25 10:38:06;;;;;;;6.75;1.00;;;10.80;99.90;;;;;;4966738;28;20146;-76
2023/03/25 10:40:39;;;;;;;2.80;1.20;;;10.80;99.90;;;;;;4955610;28;20058;-75
2023/03/25 10:43:26;;;;;;;2.97;1.20;;;10.70;99.90;;;;;;4962978;28;20054;-75
2023/03/25 10:46:27;;;;;;;6.60;1.20;;;10.80;99.90;;;;;;4982642;28;20047;-74
2023/03/25 10:48:53;;;;;;;2.35;0.93;;;10.80;99.90;;;;;;4967399;28;20054;-74
2023/03/25 10:51:23;;;;;;;3.80;1.40;;;10.90;99.90;;;;;;4987020;28;20049;-74
2023/03/25 10:53:51;;;;;;;9.35;1.95;;;11.00;99.90;;;;;;4967407;28;20124;-75
2023/03/25 10:56:23;;;;;;;;;;;11.10;99.90;;;;;;4967580;28;20046;-75
2023/03/25 10:58:54;;;;;;;4.00;1.13;;;11.10;99.90;;;;;;4986566;28;19918;-75
2023/03/25 11:01:28;;;;;;;5.82;1.67;;;10.70;99.90;;;;;;4933173;28;20042;-74
2023/03/25 11:03:54;;;;;;;3.25;1.27;;;10.60;99.90;;;;;;4950921;28;20038;-74
2023/03/25 11:06:44;;;;;;;3.00;1.20;;;10.90;99.90;;;;;;4965473;28;20086;-74
2023/03/25 11:09:29;;;;;;;3.78;1.40;;;11.20;99.90;;;;;;4983200;28;20041;-74
2023/03/25 11:12:18;;;;;;;5.20;1.63;;;11.30;99.90;;;;;;4968963;28;20438;-74
2023/03/25 11:14:44;;;;;;;4.78;1.50;;;11.20;99.90;;;;;;4961364;28;20047;-74
2023/03/25 11:17:15;;;;;;;6.10;1.83;;;11.30;99.90;;;;;;4983697;28;20046;-73
2023/03/25 11:19:50;;;;;;;5.88;1.50;;;11.30;99.90;;;;;;4983999;28;20050;-74
2023/03/25 11:22:30;;;;;;;4.57;1.65;;;11.40;99.90;;;;;;4983062;28;20043;-74
2023/03/25 11:25:06;;;;;;;4.10;1.60;;;11.50;99.90;;;;;;4959604;28;20042;-73
2023/03/25 11:27:40;;;;;;;6.30;1.65;;;11.30;99.90;;;;;;4954705;28;20034;-74
2023/03/25 11:30:07;;;;;;;4.55;1.45;;;11.20;99.90;;;;;;4940641;28;20042;-74
2023/03/25 11:32:35;;;;;;;6.47;1.83;;;11.20;99.90;;;;;;4952055;28;20568;-74
2023/03/25 11:35:06;;;;;;;3.80;1.90;;;11.10;99.90;;;;;;4973609;28;20062;-73
2023/03/25 11:37:41;;;;;;;3.47;1.30;;;11.10;99.90;;;;;;4982829;28;20871;-75
2023/03/25 11:40:14;;;;;;;3.15;1.35;;;11.10;99.90;;;;;;4954634;28;20061;-74
2023/03/25 11:42:48;;;;;;;4.65;1.63;;;11.40;99.90;;;;;;4980179;28;20046;-73
2023/03/25 11:45:37;;;;;;;4.47;1.70;;;11.60;99.90;;;;;;4988756;28;20088;-76
2023/03/25 11:48:21;;;;;;;4.82;1.70;;;11.80;99.90;;;;;;4959238;28;20047;-74
2023/03/25 11:50:56;;;;;;;5.15;1.83;;;12.00;99.90;;;;;;4963427;28;20133;-74
2023/03/25 11:53:24;;;;;;;7.90;1.90;;;12.00;99.90;;;;;;4973719;28;20060;-74
2023/03/25 11:55:52;;;;;;;4.03;1.83;;;12.00;99.90;;;;;;4986898;28;20141;-75
2023/03/25 11:58:26;;;;;;;5.78;2.03;;;11.70;99.90;;;;;;4968011;28;20050;-74
2023/03/25 12:00:58;;;;;;;6.03;1.80;;;11.70;99.90;;;;;;4954730;28;20556;-75
2023/03/25 12:03:29;;;;;;;5.95;1.70;;;11.80;99.40;;;;;;4987899;28;20097;-74
2023/03/25 12:06:19;;;;;;;4.80;1.60;;;11.80;99.80;;;;;;4947406;28;20047;-74
2023/03/25 12:09:12;;;;;;;6.18;2.13;;;11.90;98.20;;;;;;4982478;28;20053;-74
2023/03/25 12:11:46;;;;;;;5.65;2.08;;;11.90;98.40;;;;;;4977158;28;20046;-75
2023/03/25 12:14:30;;;;;;;5.90;2.08;;;11.90;98.70;;;;;;4980295;28;20380;-75
2023/03/25 12:17:02;;;;;;;4.65;1.83;;;11.80;98.90;;;;;;4987003;28;20907;-75
2023/03/25 12:19:52;;;;;;;3.53;1.30;;;11.60;98.50;;;;;;4979020;28;20051;-74
2023/03/25 12:22:39;;;;;;;3.35;1.38;;;11.60;99.50;;;;;;4954764;28;20046;-74
2023/03/25 12:25:18;;;;;;;4.55;1.83;;;11.70;99.00;;;;;;4985621;28;20050;-73
2023/03/25 12:28:17;;;;;;;4.45;1.98;;;11.60;99.60;;;;;;4981503;28;20057;-75
2023/03/25 12:31:14;;;;;;;5.28;1.98;;;11.50;99.60;;;;;;4950396;28;20039;-75
2023/03/25 12:33:40;;;;;;;3.92;1.50;;;11.50;99.90;;;;;;4986349;28;20047;-75
2023/03/25 12:36:15;;;;;;;6.15;2.15;;;11.50;99.90;;;;;;4984322;28;20329;-74
2023/03/25 12:39:13;;;;;;;4.45;1.67;;;11.50;99.90;;;;;;4949923;28;20120;-74
2023/03/25 12:41:50;;;;;;;6.97;1.88;;;11.60;99.90;;;;;;4984090;28;20065;-76
2023/03/25 12:44:37;;;;;;;4.97;1.73;;;11.80;99.90;;;;;;4974034;28;20044;-74
2023/03/25 12:47:13;;;;;;;6.80;1.77;;;12.00;98.90;;;;;;4975216;28;20045;-75
2023/03/25 12:50:15;;;;;;;4.35;1.60;;;12.60;96.90;;;;;;4974153;28;20077;-75
2023/03/25 12:53:01;;;;;;;6.60;1.77;;;12.60;97.00;;;;;;4983946;28;20152;-73
2023/03/25 12:55:34;;;;;;;6.15;1.70;;;12.50;96.50;;;;;;4984481;28;20547;-75
2023/03/25 12:58:22;;;;;;;5.78;2.20;;;12.70;96.90;;;;;;4973785;28;20046;-75
2023/03/25 13:01:07;;;;;;;;;;;15.50;87.10;;;;;;4965704;28;20097;-73
2023/03/25 13:03:54;;;;;;;4.53;1.70;;;16.50;76.30;;;;;;4979430;28;19921;-75
2023/03/25 13:06:39;;;;;;;4.63;2.10;;;15.00;78.90;;;;;;4982334;28;20358;-75
2023/03/25 13:09:16;;;;;;;6.60;2.05;;;14.80;81.20;;;;;;4985575;28;20058;-76
2023/03/25 13:11:48;;;;;;;5.20;1.85;;;14.00;85.30;;;;;;4973470;28;20042;-75
2023/03/25 13:14:42;;;;;;;6.90;1.60;;;13.10;90.60;;;;;;4967706;28;20052;-75